sensor_id;sensor_type;location;lat;lon;timestamp;pressure;altitude;pressure_sealevel;temperature;humidity
46722;BME280;32455;43.430;23.136;2023-01-08T00:00:33;98611.75;;;0.65;100.00
46722;BME280;32455;43.430;23.136;2023-01-08T00:03:19;98622.84;;;0.68;100.00
46722;BME280;32455;43.430;23.136;2023-01-08T00:06:08;98624.78;;;0.94;100.00
46722;BME280;32455;43.430;23.136;2023-01-08T00:08:54;98627.00;;;1.16;100.00
46722;BME280;32455;43.430;23.136;2023-01-08T00:11:39;98624.63;;;1.13;100.00
46722;BME280;32455;43.430;23.136;2023-01-08T00:14:25;98603.47;;;0.95;100.00
46722;BME280;32455;43.430;23.136;2023-01-08T00:17:10;98614.25;;;0.84;100.00
46722;BME280;32455;43.430;23.136;2023-01-08T00:19:55;98626.59;;;0.93;100.00
46722;BME280;32455;43.430;23.136;2023-01-08T00:22:41;98609.50;;;1.06;100.00
46722;BME280;32455;43.430;23.136;2023-01-08T00:25:26;98627.28;;;1.13;100.00
46722;BME280;32455;43.430;23.136;2023-01-08T00:28:11;98645.88;;;0.86;100.00
46722;BME280;32455;43.430;23.136;2023-01-08T00:30:59;98639.31;;;0.62;100.00
46722;BME280;32455;43.430;23.136;2023-01-08T00:33:46;98649.94;;;0.80;100.00
46722;BME280;32455;43.430;23.136;2023-01-08T00:36:32;98636.66;;;1.08;100.00
46722;BME280;32455;43.430;23.136;2023-01-08T00:39:17;98654.66;;;1.04;100.00
46722;BME280;32455;43.430;23.136;2023-01-08T00:42:03;98656.13;;;0.89;100.00
46722;BME280;32455;43.430;23.136;2023-01-08T00:44:49;98656.94;;;0.71;100.00
46722;BME280;32455;43.430;23.136;2023-01-08T00:47:34;98672.38;;;0.48;100.00
46722;BME280;32455;43.430;23.136;2023-01-08T00:50:20;98653.19;;;0.46;100.00
46722;BME280;32455;43.430;23.136;2023-01-08T00:53:05;98661.84;;;0.66;100.00
46722;BME280;32455;43.430;23.136;2023-01-08T00:55:59;98655.38;;;0.51;100.00
46722;BME280;32455;43.430;23.136;2023-01-08T00:58:45;98665.16;;;0.68;100.00
46722;BME280;32455;43.430;23.136;2023-01-08T01:01:30;98636.97;;;0.59;100.00
46722;BME280;32455;43.430;23.136;2023-01-08T01:04:16;98632.09;;;0.37;100.00
46722;BME280;32455;43.430;23.136;2023-01-08T01:07:02;98663.19;;;0.53;100.00
46722;BME280;32455;43.430;23.136;2023-01-08T01:09:47;98638.63;;;0.33;100.00
46722;BME280;32455;43.430;23.136;2023-01-08T01:12:32;98660.41;;;0.72;100.00
46722;BME280;32455;43.430;23.136;2023-01-08T01:15:18;98656.66;;;0.74;100.00
46722;BME280;32455;43.430;23.136;2023-01-08T01:18:02;98663.16;;;0.98;100.00
46722;BME280;32455;43.430;23.136;2023-01-08T01:20:48;98653.88;;;0.94;100.00
46722;BME280;32455;43.430;23.136;2023-01-08T01:23:35;98644.72;;;0.70;100.00
46722;BME280;32455;43.430;23.136;2023-01-08T01:26:21;98659.59;;;0.71;100.00
46722;BME280;32455;43.430;23.136;2023-01-08T01:29:06;98663.03;;;0.54;100.00
46722;BME280;32455;43.430;23.136;2023-01-08T01:31:51;98640.84;;;0.37;100.00
46722;BME280;32455;43.430;23.136;2023-01-08T01:34:36;98657.41;;;0.30;100.00
46722;BME280;32455;43.430;23.136;2023-01-08T01:37:22;98633.25;;;0.24;100.00
46722;BME280;32455;43.430;23.136;2023-01-08T01:40:07;98630.69;;;0.05;100.00
46722;BME280;32455;43.430;23.136;2023-01-08T01:42:53;98634.38;;;0.22;100.00
46722;BME280;32455;43.430;23.136;2023-01-08T01:45:39;98623.34;;;-0.01;100.00
46722;BME280;32455;43.430;23.136;2023-01-08T01:48:25;98626.00;;;-0.11;100.00
46722;BME280;32455;43.430;23.136;2023-01-08T01:51:10;98639.06;;;0.01;100.00
46722;BME280;32455;43.430;23.136;2023-01-08T01:53:56;98629.53;;;-0.20;100.00
46722;BME280;32455;43.430;23.136;2023-01-08T01:56:42;98638.81;;;-0.16;100.00
46722;BME280;32455;43.430;23.136;2023-01-08T01:59:28;98624.28;;;-0.39;100.00
46722;BME280;32455;43.430;23.136;2023-01-08T02:02:13;98633.09;;;-0.11;100.00
46722;BME280;32455;43.430;23.136;2023-01-08T02:04:59;98648.44;;;0.22;100.00
46722;BME280;32455;43.430;23.136;2023-01-08T02:07:49;98650.63;;;0.27;100.00
46722;BME280;32455;43.430;23.136;2023-01-08T02:10:52;98655.25;;;-0.32;100.00
46722;BME280;32455;43.430;23.136;2023-01-08T02:13:45;98660.16;;;-0.66;100.00
46722;BME280;32455;43.430;23.136;2023-01-08T02:16:44;98662.47;;;-0.43;100.00
46722;BME280;32455;43.430;23.136;2023-01-08T02:19:45;98655.00;;;-0.38;100.00
46722;BME280;32455;43.430;23.136;2023-01-08T02:22:43;98667.34;;;-0.39;100.00
46722;BME280;32455;43.430;23.136;2023-01-08T02:29:05;98656.41;;;-0.63;100.00
46722;BME280;32455;43.430;23.136;2023-01-08T02:31:51;98647.38;;;-0.70;100.00
46722;BME280;32455;43.430;23.136;2023-01-08T02:34:35;98648.75;;;-0.57;100.00
46722;BME280;32455;43.430;23.136;2023-01-08T02:37:21;98651.00;;;-0.71;100.00
46722;BME280;32455;43.430;23.136;2023-01-08T02:40:51;98654.56;;;-0.43;100.00
46722;BME280;32455;43.430;23.136;2023-01-08T02:43:26;98646.78;;;-0.26;100.00
46722;BME280;32455;43.430;23.136;2023-01-08T02:46:22;98642.09;;;-0.61;100.00
46722;BME280;32455;43.430;23.136;2023-01-08T02:49:10;98628.34;;;-0.74;100.00
46722;BME280;32455;43.430;23.136;2023-01-08T02:51:59;98626.25;;;-0.70;100.00
46722;BME280;32455;43.430;23.136;2023-01-08T02:54:48;98625.28;;;-0.50;100.00
46722;BME280;32455;43.430;23.136;2023-01-08T02:57:34;98629.72;;;-0.60;100.00
46722;BME280;32455;43.430;23.136;2023-01-08T03:00:20;98622.88;;;-0.43;100.00
46722;BME280;32455;43.430;23.136;2023-01-08T03:03:19;98628.94;;;-0.14;100.00
46722;BME280;32455;43.430;23.136;2023-01-08T03:06:08;98636.38;;;-0.37;100.00
46722;BME280;32455;43.430;23.136;2023-01-08T03:08:54;98621.19;;;-0.35;100.00
46722;BME280;32455;43.430;23.136;2023-01-08T03:11:56;98630.41;;;-0.48;100.00
46722;BME280;32455;43.430;23.136;2023-01-08T03:14:54;98634.41;;;-0.35;100.00
46722;BME280;32455;43.430;23.136;2023-01-08T03:17:45;98631.78;;;-0.44;100.00
46722;BME280;32455;43.430;23.136;2023-01-08T03:20:35;98618.88;;;-0.57;100.00
46722;BME280;32455;43.430;23.136;2023-01-08T03:23:22;98638.50;;;-0.60;100.00
46722;BME280;32455;43.430;23.136;2023-01-08T03:26:09;98626.00;;;-0.67;100.00
46722;BME280;32455;43.430;23.136;2023-01-08T03:29:01;98642.50;;;-0.75;100.00
46722;BME280;32455;43.430;23.136;2023-01-08T03:31:49;98637.09;;;-0.73;100.00
46722;BME280;32455;43.430;23.136;2023-01-08T03:34:39;98637.38;;;-0.77;100.00
46722;BME280;32455;43.430;23.136;2023-01-08T03:37:29;98615.72;;;-1.09;100.00
46722;BME280;32455;43.430;23.136;2023-01-08T03:40:23;98638.63;;;-1.00;100.00
46722;BME280;32455;43.430;23.136;2023-01-08T03:43:10;98606.97;;;-1.19;100.00
46722;BME280;32455;43.430;23.136;2023-01-08T03:45:57;98637.66;;;-0.89;100.00
46722;BME280;32455;43.430;23.136;2023-01-08T03:48:44;98612.25;;;-1.10;100.00
46722;BME280;32455;43.430;23.136;2023-01-08T03:51:45;98619.34;;;-1.01;100.00
46722;BME280;32455;43.430;23.136;2023-01-08T03:54:33;98620.88;;;-0.88;100.00
46722;BME280;32455;43.430;23.136;2023-01-08T03:57:19;98619.72;;;-0.86;100.00
46722;BME280;32455;43.430;23.136;2023-01-08T04:00:05;98626.41;;;-0.72;100.00
46722;BME280;32455;43.430;23.136;2023-01-08T04:02:51;98637.66;;;-0.70;100.00
46722;BME280;32455;43.430;23.136;2023-01-08T04:05:36;98633.06;;;-0.78;100.00
46722;BME280;32455;43.430;23.136;2023-01-08T04:08:21;98631.41;;;-0.88;100.00
46722;BME280;32455;43.430;23.136;2023-01-08T04:11:06;98638.34;;;-0.78;100.00
46722;BME280;32455;43.430;23.136;2023-01-08T04:13:51;98627.66;;;-0.95;100.00
46722;BME280;32455;43.430;23.136;2023-01-08T04:16:37;98641.28;;;-0.81;100.00
46722;BME280;32455;43.430;23.136;2023-01-08T04:19:22;98642.50;;;-1.04;100.00
46722;BME280;32455;43.430;23.136;2023-01-08T04:22:10;98636.66;;;-1.08;100.00
46722;BME280;32455;43.430;23.136;2023-01-08T04:24:56;98642.78;;;-1.07;100.00
46722;BME280;32455;43.430;23.136;2023-01-08T04:27:41;98622.78;;;-1.19;100.00
46722;BME280;32455;43.430;23.136;2023-01-08T04:30:26;98632.94;;;-0.76;100.00
46722;BME280;32455;43.430;23.136;2023-01-08T04:33:12;98648.50;;;-0.92;100.00
46722;BME280;32455;43.430;23.136;2023-01-08T04:35:57;98647.47;;;-1.20;100.00
46722;BME280;32455;43.430;23.136;2023-01-08T04:38:43;98656.34;;;-1.41;100.00
46722;BME280;32455;43.430;23.136;2023-01-08T04:41:29;98661.22;;;-1.27;100.00
46722;BME280;32455;43.430;23.136;2023-01-08T04:44:14;98642.50;;;-1.23;100.00
46722;BME280;32455;43.430;23.136;2023-01-08T04:46:59;98652.16;;;-1.34;100.00
46722;BME280;32455;43.430;23.136;2023-01-08T04:49:45;98641.59;;;-1.53;100.00
46722;BME280;32455;43.430;23.136;2023-01-08T04:52:30;98639.22;;;-1.56;100.00
46722;BME280;32455;43.430;23.136;2023-01-08T04:55:15;98649.19;;;-1.60;100.00
46722;BME280;32455;43.430;23.136;2023-01-08T04:58:01;98671.00;;;-1.58;100.00
46722;BME280;32455;43.430;23.136;2023-01-08T05:00:46;98657.47;;;-1.74;100.00
46722;BME280;32455;43.430;23.136;2023-01-08T05:03:31;98663.66;;;-1.44;100.00
46722;BME280;32455;43.430;23.136;2023-01-08T05:06:17;98661.13;;;-1.56;100.00
46722;BME280;32455;43.430;23.136;2023-01-08T05:09:03;98663.47;;;-1.62;100.00
46722;BME280;32455;43.430;23.136;2023-01-08T05:11:48;98658.25;;;-1.53;100.00
46722;BME280;32455;43.430;23.136;2023-01-08T05:14:34;98651.47;;;-1.45;100.00
46722;BME280;32455;43.430;23.136;2023-01-08T05:17:19;98665.31;;;-1.53;100.00
46722;BME280;32455;43.430;23.136;2023-01-08T05:20:05;98669.59;;;-1.52;100.00
46722;BME280;32455;43.430;23.136;2023-01-08T05:22:50;98642.88;;;-1.38;100.00
46722;BME280;32455;43.430;23.136;2023-01-08T05:25:36;98659.66;;;-1.29;100.00
46722;BME280;32455;43.430;23.136;2023-01-08T05:28:21;98642.06;;;-1.79;100.00
46722;BME280;32455;43.430;23.136;2023-01-08T05:31:06;98649.06;;;-1.89;100.00
46722;BME280;32455;43.430;23.136;2023-01-08T05:33:51;98662.16;;;-1.78;100.00
46722;BME280;32455;43.430;23.136;2023-01-08T05:36:37;98642.06;;;-1.79;100.00
46722;BME280;32455;43.430;23.136;2023-01-08T05:39:22;98665.56;;;-1.56;100.00
46722;BME280;32455;43.430;23.136;2023-01-08T05:42:07;98663.47;;;-1.62;100.00
46722;BME280;32455;43.430;23.136;2023-01-08T05:44:52;98648.75;;;-1.65;100.00
46722;BME280;32455;43.430;23.136;2023-01-08T05:47:37;98647.38;;;-1.69;100.00
46722;BME280;32455;43.430;23.136;2023-01-08T05:50:21;98651.53;;;-1.66;100.00
46722;BME280;32455;43.430;23.136;2023-01-08T05:53:08;98646.22;;;-1.76;100.00
46722;BME280;32455;43.430;23.136;2023-01-08T05:56:04;98656.84;;;-1.57;100.00
46722;BME280;32455;43.430;23.136;2023-01-08T05:58:52;98654.66;;;-1.42;100.00
46722;BME280;32455;43.430;23.136;2023-01-08T06:01:37;98645.91;;;-1.42;100.00
46722;BME280;32455;43.430;23.136;2023-01-08T06:04:23;98645.13;;;-1.23;100.00
46722;BME280;32455;43.430;23.136;2023-01-08T06:07:08;98657.34;;;-1.22;100.00
46722;BME280;32455;43.430;23.136;2023-01-08T06:09:54;98654.13;;;-1.36;100.00
46722;BME280;32455;43.430;23.136;2023-01-08T06:12:39;98644.97;;;-1.32;100.00
46722;BME280;32455;43.430;23.136;2023-01-08T06:15:24;98642.91;;;-1.18;100.00
46722;BME280;32455;43.430;23.136;2023-01-08T06:18:10;98659.31;;;-1.15;100.00
46722;BME280;32455;43.430;23.136;2023-01-08T06:20:55;98657.44;;;-1.34;100.00
46722;BME280;32455;43.430;23.136;2023-01-08T06:23:41;98662.03;;;-1.26;100.00
46722;BME280;32455;43.430;23.136;2023-01-08T06:26:26;98663.69;;;-1.35;100.00
46722;BME280;32455;43.430;23.136;2023-01-08T06:29:12;98654.41;;;-1.29;100.00
46722;BME280;32455;43.430;23.136;2023-01-08T06:31:57;98651.38;;;-1.15;100.00
46722;BME280;32455;43.430;23.136;2023-01-08T06:34:42;98665.97;;;-1.11;100.00
46722;BME280;32455;43.430;23.136;2023-01-08T06:37:28;98676.63;;;-1.12;100.00
46722;BME280;32455;43.430;23.136;2023-01-08T06:40:13;98667.78;;;-1.02;100.00
46722;BME280;32455;43.430;23.136;2023-01-08T06:43:04;98679.72;;;-0.97;100.00
46722;BME280;32455;43.430;23.136;2023-01-08T06:45:54;98680.97;;;-0.82;100.00
46722;BME280;32455;43.430;23.136;2023-01-08T06:48:41;98682.63;;;-0.91;100.00
46722;BME280;32455;43.430;23.136;2023-01-08T06:51:27;98688.63;;;-0.79;100.00
46722;BME280;32455;43.430;23.136;2023-01-08T06:54:12;98687.22;;;-0.73;100.00
46722;BME280;32455;43.430;23.136;2023-01-08T06:56:58;98688.06;;;-0.73;100.00
46722;BME280;32455;43.430;23.136;2023-01-08T06:59:43;98698.06;;;-0.67;100.00
46722;BME280;32455;43.430;23.136;2023-01-08T07:02:28;98689.44;;;-0.69;100.00
46722;BME280;32455;43.430;23.136;2023-01-08T07:05:14;98683.75;;;-0.64;100.00
46722;BME280;32455;43.430;23.136;2023-01-08T07:07:59;98692.09;;;-0.79;100.00
46722;BME280;32455;43.430;23.136;2023-01-08T07:10:45;98720.84;;;-0.56;100.00
46722;BME280;32455;43.430;23.136;2023-01-08T07:13:30;98718.19;;;-0.08;100.00
46722;BME280;32455;43.430;23.136;2023-01-08T07:16:16;98705.53;;;-0.04;100.00
46722;BME280;32455;43.430;23.136;2023-01-08T07:19:02;98708.09;;;0.15;100.00
46722;BME280;32455;43.430;23.136;2023-01-08T07:21:48;98717.78;;;0.34;100.00
46722;BME280;32455;43.430;23.136;2023-01-08T07:24:34;98730.53;;;0.48;100.00
46722;BME280;32455;43.430;23.136;2023-01-08T07:27:19;98731.72;;;0.64;100.00
46722;BME280;32455;43.430;23.136;2023-01-08T07:30:05;98711.56;;;0.63;100.00
46722;BME280;32455;43.430;23.136;2023-01-08T07:32:51;98731.66;;;0.83;100.00
46722;BME280;32455;43.430;23.136;2023-01-08T07:35:36;98734.56;;;0.80;100.00
46722;BME280;32455;43.430;23.136;2023-01-08T07:38:22;98734.28;;;0.83;100.00
46722;BME280;32455;43.430;23.136;2023-01-08T07:41:07;98719.41;;;0.82;100.00
46722;BME280;32455;43.430;23.136;2023-01-08T07:43:52;98731.09;;;0.80;100.00
46722;BME280;32455;43.430;23.136;2023-01-08T07:46:37;98717.38;;;0.94;100.00
46722;BME280;32455;43.430;23.136;2023-01-08T07:49:23;98733.66;;;0.99;100.00
46722;BME280;32455;43.430;23.136;2023-01-08T07:52:08;98729.16;;;0.82;100.00
46722;BME280;32455;43.430;23.136;2023-01-08T07:54:54;98733.59;;;1.09;100.00
46722;BME280;32455;43.430;23.136;2023-01-08T07:57:39;98743.34;;;1.08;100.00
46722;BME280;32455;43.430;23.136;2023-01-08T08:00:25;98744.47;;;1.06;100.00
46722;BME280;32455;43.430;23.136;2023-01-08T08:03:11;98731.41;;;1.04;100.00
46722;BME280;32455;43.430;23.136;2023-01-08T08:05:59;98742.16;;;1.20;100.00
46722;BME280;32455;43.430;23.136;2023-01-08T08:08:45;98742.47;;;1.17;100.00
46722;BME280;32455;43.430;23.136;2023-01-08T08:11:30;98735.34;;;1.18;100.00
46722;BME280;32455;43.430;23.136;2023-01-08T08:14:16;98742.75;;;1.14;100.00
46722;BME280;32455;43.430;23.136;2023-01-08T08:17:02;98745.09;;;1.17;100.00
46722;BME280;32455;43.430;23.136;2023-01-08T08:19:47;98745.28;;;1.34;100.00
46722;BME280;32455;43.430;23.136;2023-01-08T08:22:33;98733.53;;;1.18;100.00
46722;BME280;32455;43.430;23.136;2023-01-08T08:25:18;98755.88;;;1.34;100.00
46722;BME280;32455;43.430;23.136;2023-01-08T08:28:04;98759.06;;;1.37;100.00
46722;BME280;32455;43.430;23.136;2023-01-08T08:30:50;98756.59;;;1.26;100.00
46722;BME280;32455;43.430;23.136;2023-01-08T08:33:35;98761.00;;;1.35;100.00
46722;BME280;32455;43.430;23.136;2023-01-08T08:36:27;98749.41;;;1.18;100.00
46722;BME280;32455;43.430;23.136;2023-01-08T08:39:12;98759.00;;;1.19;100.00
46722;BME280;32455;43.430;23.136;2023-01-08T08:41:58;98768.03;;;1.27;100.00
46722;BME280;32455;43.430;23.136;2023-01-08T08:44:43;98759.75;;;0.84;100.00
46722;BME280;32455;43.430;23.136;2023-01-08T08:47:29;98752.66;;;1.12;100.00
46722;BME280;32455;43.430;23.136;2023-01-08T08:50:15;98766.22;;;1.27;100.00
46722;BME280;32455;43.430;23.136;2023-01-08T08:53:01;98753.50;;;1.31;100.00
46722;BME280;32455;43.430;23.136;2023-01-08T08:55:47;98761.47;;;1.31;100.00
46722;BME280;32455;43.430;23.136;2023-01-08T08:58:33;98769.31;;;1.40;100.00
46722;BME280;32455;43.430;23.136;2023-01-08T09:01:18;98768.13;;;1.35;100.00
46722;BME280;32455;43.430;23.136;2023-01-08T09:04:03;98774.31;;;1.25;100.00
46722;BME280;32455;43.430;23.136;2023-01-08T09:06:49;98753.69;;;1.02;100.00
46722;BME280;32455;43.430;23.136;2023-01-08T09:09:34;98768.47;;;1.22;100.00
46722;BME280;32455;43.430;23.136;2023-01-08T09:12:19;98763.28;;;1.30;100.00
46722;BME280;32455;43.430;23.136;2023-01-08T09:15:05;98762.38;;;1.39;100.00
46722;BME280;32455;43.430;23.136;2023-01-08T09:17:54;98762.38;;;1.39;100.00
46722;BME280;32455;43.430;23.136;2023-01-08T09:20:40;98745.56;;;1.48;100.00
46722;BME280;32455;43.430;23.136;2023-01-08T09:23:25;98759.97;;;1.64;100.00
46722;BME280;32455;43.430;23.136;2023-01-08T09:26:10;98750.81;;;1.76;100.00
46722;BME280;32455;43.430;23.136;2023-01-08T09:28:57;98758.13;;;1.82;100.00
46722;BME280;32455;43.430;23.136;2023-01-08T09:31:41;98724.31;;;1.40;100.00
46722;BME280;32455;43.430;23.136;2023-01-08T09:34:26;98743.38;;;1.62;100.00
46722;BME280;32455;43.430;23.136;2023-01-08T09:37:12;98728.94;;;1.56;100.00
46722;BME280;32455;43.430;23.136;2023-01-08T09:39:57;98726.97;;;1.76;100.00
46722;BME280;32455;43.430;23.136;2023-01-08T09:42:42;98724.69;;;1.45;100.00
46722;BME280;32455;43.430;23.136;2023-01-08T09:45:30;98706.69;;;1.31;100.00
46722;BME280;32455;43.430;23.136;2023-01-08T09:48:17;98705.03;;;1.48;100.00
46722;BME280;32455;43.430;23.136;2023-01-08T09:51:08;98702.56;;;1.90;100.00
46722;BME280;32455;43.430;23.136;2023-01-08T09:53:55;98694.94;;;1.69;100.00
46722;BME280;32455;43.430;23.136;2023-01-08T09:56:41;98699.63;;;1.75;100.00
46722;BME280;32455;43.430;23.136;2023-01-08T09:59:27;98672.50;;;1.56;100.00
46722;BME280;32455;43.430;23.136;2023-01-08T10:02:21;98700.53;;;1.84;100.00
46722;BME280;32455;43.430;23.136;2023-01-08T10:05:14;98689.69;;;1.95;100.00
46722;BME280;32455;43.430;23.136;2023-01-08T10:08:00;98689.06;;;2.02;100.00
46722;BME280;32455;43.430;23.136;2023-01-08T10:10:46;98678.53;;;2.18;100.00
46722;BME280;32455;43.430;23.136;2023-01-08T10:13:34;98682.88;;;2.19;100.00
46722;BME280;32455;43.430;23.136;2023-01-08T10:16:34;98673.09;;;2.19;100.00
46722;BME280;32455;43.430;23.136;2023-01-08T10:19:22;98687.06;;;2.30;100.00
46722;BME280;32455;43.430;23.136;2023-01-08T10:22:21;98675.34;;;2.32;100.00
46722;BME280;32455;43.430;23.136;2023-01-08T10:25:15;98662.91;;;2.33;100.00
46722;BME280;32455;43.430;23.136;2023-01-08T10:28:02;98672.31;;;2.61;100.00
46722;BME280;32455;43.430;23.136;2023-01-08T10:30:47;98649.88;;;2.47;100.00
46722;BME280;32455;43.430;23.136;2023-01-08T10:33:45;98658.78;;;2.81;100.00
46722;BME280;32455;43.430;23.136;2023-01-08T10:36:38;98662.75;;;2.76;100.00
46722;BME280;32455;43.430;23.136;2023-01-08T10:39:29;98656.78;;;2.74;100.00
46722;BME280;32455;43.430;23.136;2023-01-08T10:42:17;98655.47;;;2.79;100.00
46722;BME280;32455;43.430;23.136;2023-01-08T10:45:06;98657.19;;;2.96;100.00
46722;BME280;32455;43.430;23.136;2023-01-08T10:47:58;98658.84;;;2.97;100.00
46722;BME280;32455;43.430;23.136;2023-01-08T10:50:45;98651.03;;;2.87;100.00
46722;BME280;32455;43.430;23.136;2023-01-08T10:53:31;98637.75;;;2.87;100.00
46722;BME280;32455;43.430;23.136;2023-01-08T10:56:29;98656.69;;;3.00;100.00
46722;BME280;32455;43.430;23.136;2023-01-08T10:59:22;98637.47;;;3.23;100.00
46722;BME280;32455;43.430;23.136;2023-01-08T11:02:20;98648.75;;;3.09;100.00
46722;BME280;32455;43.430;23.136;2023-01-08T11:05:07;98642.13;;;3.45;100.00
46722;BME280;32455;43.430;23.136;2023-01-08T11:07:56;98647.13;;;3.48;100.00
46722;BME280;32455;43.430;23.136;2023-01-08T11:10:55;98648.13;;;3.47;100.00
46722;BME280;32455;43.430;23.136;2023-01-08T11:13:58;98636.00;;;3.69;100.00
46722;BME280;32455;43.430;23.136;2023-01-08T11:16:45;98631.50;;;3.54;100.00
46722;BME280;32455;43.430;23.136;2023-01-08T11:19:34;98631.19;;;3.65;100.00
46722;BME280;32455;43.430;23.136;2023-01-08T11:22:21;98630.81;;;3.68;100.00
46722;BME280;32455;43.430;23.136;2023-01-08T11:25:12;98611.56;;;3.49;100.00
46722;BME280;32455;43.430;23.136;2023-01-08T11:27:58;98614.06;;;3.51;100.00
46722;BME280;32455;43.430;23.136;2023-01-08T11:30:53;98626.50;;;3.42;100.00
46722;BME280;32455;43.430;23.136;2023-01-08T11:33:38;98633.84;;;3.65;100.00
46722;BME280;32455;43.430;23.136;2023-01-08T11:36:33;98625.50;;;3.60;100.00
46722;BME280;32455;43.430;23.136;2023-01-08T11:39:20;98636.66;;;3.47;100.00
46722;BME280;32455;43.430;23.136;2023-01-08T11:48:18;98627.53;;;3.49;100.00
46722;BME280;32455;43.430;23.136;2023-01-08T11:52:03;98633.00;;;3.56;100.00
46722;BME280;32455;43.430;23.136;2023-01-08T11:57:30;98621.88;;;3.36;100.00
46722;BME280;32455;43.430;23.136;2023-01-08T12:00:53;98621.03;;;3.36;100.00
46722;BME280;32455;43.430;23.136;2023-01-08T12:04:00;98616.03;;;3.16;100.00
46722;BME280;32455;43.430;23.136;2023-01-08T12:07:18;98612.38;;;3.01;100.00
46722;BME280;32455;43.430;23.136;2023-01-08T12:10:22;98599.13;;;3.17;100.00
46722;BME280;32455;43.430;23.136;2023-01-08T12:16:47;98605.88;;;2.95;100.00
46722;BME280;32455;43.430;23.136;2023-01-08T12:22:43;98611.56;;;3.00;100.00
46722;BME280;32455;43.430;23.136;2023-01-08T12:31:53;98611.31;;;2.78;100.00
46722;BME280;32455;43.430;23.136;2023-01-08T12:38:02;98582.50;;;2.91;100.00
46722;BME280;32455;43.430;23.136;2023-01-08T12:40:51;98593.47;;;3.12;100.00
46722;BME280;32455;43.430;23.136;2023-01-08T12:46:35;98556.28;;;2.80;100.00
46722;BME280;32455;43.430;23.136;2023-01-08T12:49:25;98589.13;;;2.87;100.00
46722;BME280;32455;43.430;23.136;2023-01-08T12:52:18;98585.66;;;3.03;100.00
46722;BME280;32455;43.430;23.136;2023-01-08T12:55:58;98583.34;;;2.91;100.00
46722;BME280;32455;43.430;23.136;2023-01-08T13:01:51;98582.88;;;3.04;100.00
46722;BME280;32455;43.430;23.136;2023-01-08T13:04:45;98575.91;;;3.28;100.00
46722;BME280;32455;43.430;23.136;2023-01-08T13:07:46;98583.19;;;3.09;100.00
46722;BME280;32455;43.430;23.136;2023-01-08T13:10:38;98579.38;;;3.20;100.00
46722;BME280;32455;43.430;23.136;2023-01-08T13:13:38;98560.13;;;3.26;100.00
46722;BME280;32455;43.430;23.136;2023-01-08T13:16:26;98570.59;;;3.28;100.00
46722;BME280;32455;43.430;23.136;2023-01-08T13:19:26;98577.53;;;3.12;100.00
46722;BME280;32455;43.430;23.136;2023-01-08T13:22:38;98569.06;;;3.41;100.00
46722;BME280;32455;43.430;23.136;2023-01-08T13:34:19;98577.38;;;3.14;100.00
46722;BME280;32455;43.430;23.136;2023-01-08T13:37:05;98537.88;;;2.94;100.00
46722;BME280;32455;43.430;23.136;2023-01-08T13:39:51;98556.97;;;3.31;100.00
46722;BME280;32455;43.430;23.136;2023-01-08T13:42:40;98541.53;;;3.18;100.00
46722;BME280;32455;43.430;23.136;2023-01-08T13:45:25;98548.50;;;3.35;100.00
46722;BME280;32455;43.430;23.136;2023-01-08T13:48:24;98549.66;;;2.84;100.00
46722;BME280;32455;43.430;23.136;2023-01-08T13:51:31;98556.44;;;2.86;100.00
46722;BME280;32455;43.430;23.136;2023-01-08T13:54:31;98538.72;;;3.11;100.00
46722;BME280;32455;43.430;23.136;2023-01-08T13:57:19;98544.84;;;2.79;100.00
46722;BME280;32455;43.430;23.136;2023-01-08T14:00:07;98554.28;;;2.90;100.00
46722;BME280;32455;43.430;23.136;2023-01-08T14:02:53;98538.38;;;2.82;100.00
46722;BME280;32455;43.430;23.136;2023-01-08T14:05:38;98536.22;;;2.85;100.00
46722;BME280;32455;43.430;23.136;2023-01-08T14:08:24;98538.72;;;2.79;100.00
46722;BME280;32455;43.430;23.136;2023-01-08T14:11:10;98528.06;;;2.54;100.00
46722;BME280;32455;43.430;23.136;2023-01-08T14:13:56;98552.31;;;2.92;100.00
46722;BME280;32455;43.430;23.136;2023-01-08T14:16:42;98533.25;;;3.05;100.00
46722;BME280;32455;43.430;23.136;2023-01-08T14:19:27;98543.53;;;3.24;100.00
46722;BME280;32455;43.430;23.136;2023-01-08T14:22:17;98543.69;;;3.31;100.00
46722;BME280;32455;43.430;23.136;2023-01-08T14:25:05;98535.88;;;3.21;100.00
46722;BME280;32455;43.430;23.136;2023-01-08T14:28:01;98528.41;;;3.16;100.00
46722;BME280;32455;43.430;23.136;2023-01-08T14:30:55;98537.06;;;3.26;100.00
46722;BME280;32455;43.430;23.136;2023-01-08T14:33:41;98545.34;;;2.91;100.00
46722;BME280;32455;43.430;23.136;2023-01-08T14:36:27;98538.72;;;2.79;100.00
46722;BME280;32455;43.430;23.136;2023-01-08T14:39:21;98534.03;;;2.64;100.00
46722;BME280;32455;43.430;23.136;2023-01-08T14:42:21;98543.00;;;2.71;100.00
46722;BME280;32455;43.430;23.136;2023-01-08T14:45:28;98547.81;;;2.68;100.00
46722;BME280;32455;43.430;23.136;2023-01-08T14:48:35;98543.19;;;2.94;100.00
46722;BME280;32455;43.430;23.136;2023-01-08T14:51:28;98535.72;;;3.14;100.00
46722;BME280;32455;43.430;23.136;2023-01-08T14:54:22;98522.63;;;3.13;100.00
46722;BME280;32455;43.430;23.136;2023-01-08T14:57:11;98528.59;;;3.07;100.00
46722;BME280;32455;43.430;23.136;2023-01-08T14:59:58;98538.69;;;2.87;100.00
46722;BME280;32455;43.430;23.136;2023-01-08T15:02:45;98541.84;;;2.82;100.00
46722;BME280;32455;43.430;23.136;2023-01-08T15:05:32;98539.19;;;2.90;100.00
46722;BME280;32455;43.430;23.136;2023-01-08T15:08:24;98539.69;;;2.61;100.00
46722;BME280;32455;43.430;23.136;2023-01-08T15:11:30;98537.03;;;2.61;100.00
46722;BME280;32455;43.430;23.136;2023-01-08T15:14:26;98517.59;;;2.61;100.00
46722;BME280;32455;43.430;23.136;2023-01-08T15:17:17;98528.69;;;2.56;100.00
46722;BME280;32455;43.430;23.136;2023-01-08T15:20:05;98529.69;;;2.55;100.00